createdAt,value
2024-05-09T00:00:44.964Z,96620.31
2024-05-09T00:05:49.072Z,96620.31
2024-05-09T00:10:51.026Z,96611.66
2024-05-09T00:15:53.623Z,96617.16
2024-05-09T00:20:58.345Z,96619.91
2024-05-09T00:26:00.177Z,96613.63
2024-05-09T00:31:02.914Z,96616.00
2024-05-09T00:36:04.993Z,96612.44
2024-05-09T00:41:06.733Z,96611.28
2024-05-09T00:46:09.709Z,96608.53
2024-05-09T00:51:12.868Z,96605.81
2024-05-09T00:56:15.689Z,96600.31
2024-05-09T01:01:21.414Z,96604.63
2024-05-09T01:06:25.880Z,96600.31
2024-05-09T01:11:37.326Z,96601.47
2024-05-09T01:16:40.024Z,96595.19
2024-05-09T01:21:49.510Z,96598.34
2024-05-09T01:26:54.611Z,96599.13
2024-05-09T01:31:59.317Z,96601.09
2024-05-09T01:37:01.369Z,96602.25
2024-05-09T01:42:04.021Z,96597.94
2024-05-09T01:47:07.339Z,96602.66
2024-05-09T01:52:09.293Z,96602.25
2024-05-09T01:57:11.191Z,96608.91
2024-05-09T02:02:13.407Z,96607.72
2024-05-09T02:07:17.767Z,96600.66
2024-05-09T02:12:22.285Z,96602.63
2024-05-09T02:17:29.618Z,96611.25
2024-05-09T02:22:34.508Z,96603.41
2024-05-09T02:27:36.664Z,96600.25
2024-05-09T02:32:38.827Z,96604.91
2024-05-09T02:37:45.086Z,96604.91
2024-05-09T02:42:50.277Z,96603.75
2024-05-09T02:47:56.826Z,96595.88
2024-05-09T02:52:59.071Z,96597.03
2024-05-09T02:58:03.254Z,96597.81
2024-05-09T03:03:06.387Z,96598.19
2024-05-09T03:08:08.918Z,96602.09
2024-05-09T03:13:16.187Z,96603.25
2024-05-09T03:18:18.559Z,96604.38
2024-05-09T03:23:21.690Z,96601.59
2024-05-09T03:28:26.913Z,96603.53
2024-05-09T03:33:31.574Z,96595.25
2024-05-09T03:38:40.041Z,96595.63
2024-05-09T03:43:44.140Z,96598.72
2024-05-09T03:48:49.972Z,96604.16
2024-05-09T03:53:51.931Z,96594.34
2024-05-09T03:58:55.164Z,96606.47
2024-05-09T04:03:59.890Z,96603.31
2024-05-09T04:09:03.144Z,96613.09
2024-05-09T04:14:10.223Z,96615.78
2024-05-09T04:19:15.743Z,96628.28
2024-05-09T04:24:20.913Z,96621.66
2024-05-09T04:29:22.901Z,96634.56
2024-05-09T04:34:28.973Z,96633.75
2024-05-09T04:39:31.166Z,96641.59
2024-05-09T04:44:33.403Z,96645.13
2024-05-09T04:49:37.914Z,96644.78
2024-05-09T04:54:39.903Z,96648.28
2024-05-09T04:59:45.241Z,96633.06
2024-05-09T05:04:49.739Z,96634.28
2024-05-09T05:09:51.829Z,96639.41
2024-05-09T05:14:57.417Z,96639.81
2024-05-09T05:20:00.595Z,96639.09
2024-05-09T05:25:02.414Z,96644.22
2024-05-09T05:30:07.590Z,96641.91
2024-05-09T05:35:13.764Z,96649.75
2024-05-09T05:40:27.889Z,96639.63
2024-05-09T05:45:39.421Z,96649.84
2024-05-09T05:50:44.146Z,96652.59
2024-05-09T05:55:46.446Z,96651.47
2024-05-09T06:00:50.900Z,96658.16
2024-05-09T06:06:01.207Z,96649.56
2024-05-09T06:11:04.527Z,96656.66
2024-05-09T06:16:06.526Z,96655.16
2024-05-09T06:21:08.229Z,96652.44
2024-05-09T06:26:11.660Z,96658.72
2024-05-09T06:31:17.441Z,96650.91
2024-05-09T06:36:19.593Z,96653.28
2024-05-09T06:41:22.641Z,96650.56
2024-05-09T06:46:25.433Z,96640.38
2024-05-09T06:51:27.175Z,96640.78
2024-05-09T06:56:28.946Z,96654.94
2024-05-09T07:01:35.622Z,96654.94
2024-05-09T07:06:37.306Z,96656.47
2024-05-09T07:11:39.202Z,96650.97
2024-05-09T07:16:40.903Z,96648.25
2024-05-09T07:21:42.534Z,96654.13
2024-05-09T07:26:44.240Z,96650.94
2024-05-09T07:31:48.048Z,96648.16
2024-05-09T07:36:49.844Z,96647.75
2024-05-09T07:41:51.455Z,96642.19
2024-05-09T07:48:14.396Z,96647.25
2024-05-09T07:53:33.192Z,96637.00
2024-05-09T07:57:59.335Z,96639.31
2024-05-09T08:03:02.190Z,96629.41
2024-05-09T08:08:05.341Z,96625.81
2024-05-09T08:13:07.111Z,96621.81
2024-05-09T08:18:12.395Z,96637.91
2024-05-09T08:23:16.780Z,96630.38
2024-05-09T08:28:18.985Z,96622.78
2024-05-09T08:33:20.834Z,96620.69
2024-05-09T08:38:25.071Z,96624.91
2024-05-09T08:43:29.099Z,96618.47
2024-05-09T08:48:33.090Z,96620.34
2024-05-09T08:53:35.097Z,96627.63
2024-05-09T08:58:42.226Z,96630.59
2024-05-09T09:03:44.978Z,96631.59
2024-05-09T09:08:52.739Z,96629.44
2024-05-09T09:13:54.405Z,96628.44
2024-05-09T09:18:58.643Z,96628.22
2024-05-09T09:24:00.388Z,96624.41
2024-05-09T09:29:04.990Z,96631.66
2024-05-09T09:34:11.588Z,96634.66
2024-05-09T09:39:24.619Z,96638.53
2024-05-09T09:44:26.921Z,96637.72
2024-05-09T09:49:33.487Z,96632.50
2024-05-09T09:54:36.299Z,96627.69
2024-05-09T09:59:41.501Z,96625.84
2024-05-09T10:04:46.148Z,96619.50
2024-05-09T10:09:48.507Z,96632.03
2024-05-09T10:14:53.587Z,96618.44
2024-05-09T10:20:14.864Z,96609.56
2024-05-09T10:25:23.868Z,96613.91
2024-05-09T10:30:34.223Z,96613.94
2024-05-09T10:35:55.874Z,96609.53
2024-05-09T10:41:00.067Z,96602.38
2024-05-09T10:46:05.827Z,96599.88
2024-05-09T10:51:07.999Z,96595.00
2024-05-09T10:56:10.381Z,96595.56
2024-05-09T11:01:13.484Z,96591.06
2024-05-09T11:06:20.937Z,96585.00
2024-05-09T11:11:22.784Z,96584.59
2024-05-09T11:16:24.522Z,96573.00
2024-05-09T11:21:28.174Z,96576.53
2024-05-09T11:26:31.944Z,96579.31
2024-05-09T11:31:46.403Z,96570.22
2024-05-09T11:36:48.273Z,96576.63
2024-05-09T11:41:51.057Z,96567.19
2024-05-09T11:46:55.617Z,96569.88
2024-05-09T11:51:59.794Z,96566.59
2024-05-09T11:57:01.571Z,96558.88
2024-05-09T12:02:13.702Z,96559.19
2024-05-09T12:07:18.593Z,96551.38
2024-05-09T12:12:25.144Z,96544.94
2024-05-09T12:17:30.622Z,96540.88
2024-05-09T12:22:39.789Z,96545.56
2024-05-09T12:27:41.610Z,96544.69
2024-05-09T12:32:43.367Z,96528.91
2024-05-09T12:37:47.278Z,96528.84
2024-05-09T12:42:49.907Z,96522.34
2024-05-09T12:47:57.497Z,96526.06
2024-05-09T12:53:02.756Z,96523.44
2024-05-09T12:58:06.013Z,96522.66
2024-05-09T13:03:07.898Z,96514.75
2024-05-09T13:08:11.397Z,96514.34
2024-05-09T13:13:26.703Z,96493.44
2024-05-09T13:18:31.252Z,96488.66
2024-05-09T13:23:37.837Z,96486.56
2024-05-09T13:28:39.556Z,96483.34
2024-05-09T13:33:41.456Z,96483.25
2024-05-09T13:38:43.307Z,96477.59
2024-05-09T13:43:44.959Z,96472.03
2024-05-09T13:48:46.729Z,96477.59
2024-05-09T13:53:51.447Z,96464.81
2024-05-09T13:58:55.376Z,96461.66
2024-05-09T14:03:57.279Z,96451.88
2024-05-09T14:08:59.100Z,96450.97
2024-05-09T14:14:00.789Z,96444.66
2024-05-09T14:19:04.578Z,96448.94
2024-05-09T14:24:08.312Z,96448.41
2024-05-09T14:29:12.379Z,96430.28
2024-05-09T14:34:14.884Z,96434.03
2024-05-09T14:39:16.779Z,96425.13
2024-05-09T14:44:21.000Z,96429.75
2024-05-09T14:49:22.807Z,96425.78
2024-05-09T14:54:25.659Z,96418.88
2024-05-09T14:59:27.336Z,96408.19
2024-05-09T15:04:31.275Z,96410.16
2024-05-09T15:09:43.755Z,96406.41
2024-05-09T15:14:45.476Z,96406.00
2024-05-09T15:19:49.738Z,96395.78
2024-05-09T15:24:53.788Z,96395.94
2024-05-09T15:29:55.502Z,96400.25
2024-05-09T15:34:58.545Z,96394.97
2024-05-09T15:40:00.314Z,96389.41
2024-05-09T15:45:06.056Z,96380.63
2024-05-09T15:50:17.416Z,96383.13
2024-05-09T15:55:33.486Z,96386.56
2024-05-09T16:00:39.792Z,96376.34
2024-05-09T16:05:47.195Z,96374.84
2024-05-09T16:10:50.807Z,96363.81
2024-05-09T16:15:55.065Z,96367.69
2024-05-09T16:21:02.015Z,96365.69
2024-05-09T16:26:03.778Z,96370.28
2024-05-09T16:31:05.535Z,96368.75
2024-05-09T16:36:07.721Z,96360.19
2024-05-09T16:41:09.750Z,96357.88
2024-05-09T16:46:11.661Z,96356.78
2024-05-09T16:51:13.399Z,96356.28
2024-05-09T16:56:17.760Z,96349.28
2024-05-09T17:01:21.637Z,96348.22
2024-05-09T17:06:28.774Z,96354.88
2024-05-09T17:11:30.526Z,96354.09
2024-05-09T17:16:32.612Z,96346.97
2024-05-09T17:21:40.936Z,96351.81
2024-05-09T17:26:53.212Z,96349.84
2024-05-09T17:31:57.079Z,96355.59
2024-05-09T17:37:00.315Z,96356.22
2024-05-09T17:42:02.094Z,96354.34
2024-05-09T17:47:04.905Z,96363.81
2024-05-09T17:52:06.928Z,96351.88
2024-05-09T17:57:11.182Z,96365.50
2024-05-09T18:02:14.723Z,96357.91
2024-05-09T18:07:18.956Z,96356.44
2024-05-09T18:12:22.793Z,96358.94
2024-05-09T18:17:25.865Z,96349.84
2024-05-09T18:22:30.266Z,96359.03
2024-05-09T18:27:34.412Z,96361.59
2024-05-09T18:32:41.423Z,96358.13
2024-05-09T18:37:43.854Z,96365.97
2024-05-09T18:42:45.592Z,96365.06
2024-05-09T18:47:49.952Z,96371.94
2024-05-09T18:52:52.779Z,96373.31
2024-05-09T18:57:54.520Z,96381.06
2024-05-09T19:03:00.524Z,96396.75
2024-05-09T19:08:02.761Z,96398.94
2024-05-09T19:13:12.762Z,96405.34
2024-05-09T19:18:15.872Z,96407.91
2024-05-09T19:23:19.015Z,96411.78
2024-05-09T19:28:25.789Z,96421.16
2024-05-09T19:33:30.060Z,96417.94
2024-05-09T19:38:32.272Z,96411.84
2024-05-09T19:43:36.243Z,96430.69
2024-05-09T19:48:39.320Z,96426.56
2024-05-09T19:53:41.173Z,96424.81
2024-05-09T19:58:47.450Z,96436.06
2024-05-09T20:03:49.444Z,96439.41
2024-05-09T20:08:53.658Z,96442.69
2024-05-09T20:14:01.373Z,96440.09
2024-05-09T20:19:05.388Z,96438.22
2024-05-09T20:24:07.606Z,96441.09
2024-05-09T20:29:09.338Z,96437.69
2024-05-09T20:34:13.358Z,96439.00
2024-05-09T20:39:15.108Z,96429.28
2024-05-09T20:44:20.044Z,96436.97
2024-05-09T20:49:23.995Z,96437.56
2024-05-09T20:54:25.667Z,96425.53
2024-05-09T20:59:30.544Z,96430.06
2024-05-09T21:04:33.446Z,96423.44
2024-05-09T21:09:35.318Z,96431.03
2024-05-09T21:14:37.010Z,96436.28
2024-05-09T21:19:38.659Z,96422.63
2024-05-09T21:24:40.405Z,96422.31
2024-05-09T21:29:42.150Z,96424.38
2024-05-09T21:34:46.870Z,96424.47
2024-05-09T21:39:49.025Z,96415.88
2024-05-09T21:44:50.662Z,96417.09
2024-05-09T21:49:55.282Z,96414.44
2024-05-09T21:55:00.025Z,96411.34
2024-05-09T22:00:01.760Z,96413.00
2024-05-09T22:05:08.031Z,96409.16
2024-05-09T22:10:20.018Z,96413.91
2024-05-09T22:15:35.250Z,96404.94
2024-05-09T22:20:39.523Z,96403.84
2024-05-09T22:25:44.911Z,96413.31
2024-05-09T22:30:47.464Z,96401.59
2024-05-09T22:35:49.928Z,96399.28
2024-05-09T22:40:52.264Z,96407.59
2024-05-09T22:45:55.053Z,96411.16
2024-05-09T22:50:57.127Z,96423.03
2024-05-09T22:56:01.138Z,96420.38
2024-05-09T23:01:03.206Z,96421.25
2024-05-09T23:06:08.738Z,96420.09
2024-05-09T23:11:10.476Z,96414.66
2024-05-09T23:16:14.505Z,96421.78
2024-05-09T23:21:18.714Z,96422.59
2024-05-09T23:26:22.864Z,96418.66
2024-05-09T23:31:25.747Z,96413.56
2024-05-09T23:36:30.997Z,96414.75
2024-05-09T23:41:38.051Z,96403.38
2024-05-09T23:46:43.533Z,96396.31
2024-05-09T23:51:45.230Z,96397.47
2024-05-09T23:56:49.692Z,96395.53
